createdAt,value
2022-12-04T00:04:10.259Z,2.30
2022-12-04T00:09:13.339Z,2.30
2022-12-04T00:14:16.394Z,2.30
2022-12-04T00:19:19.982Z,2.30
2022-12-04T00:24:22.972Z,2.30
2022-12-04T00:29:26.136Z,2.30
2022-12-04T00:34:29.092Z,2.30
2022-12-04T00:39:32.119Z,2.30
2022-12-04T00:44:35.093Z,2.30
2022-12-04T00:49:38.096Z,2.30
2022-12-04T00:54:41.111Z,2.20
2022-12-04T00:59:44.283Z,2.10
2022-12-04T01:04:47.461Z,2.20
2022-12-04T01:09:50.627Z,2.10
2022-12-04T01:14:53.957Z,2.10
2022-12-04T01:19:57.287Z,2.10
2022-12-04T01:25:00.499Z,2.10
2022-12-04T01:30:04.162Z,2.00
2022-12-04T01:35:07.567Z,2.00
2022-12-04T01:40:17.505Z,2.00
2022-12-04T01:45:42.817Z,1.90
2022-12-04T01:50:47.889Z,1.90
2022-12-04T01:55:51.534Z,1.90
2022-12-04T02:01:00.761Z,1.90
2022-12-04T02:06:06.026Z,1.80
2022-12-04T02:11:24.232Z,1.70
2022-12-04T02:16:47.346Z,1.70
2022-12-04T02:21:53.639Z,1.70
2022-12-04T02:27:01.751Z,1.70
2022-12-04T02:32:25.496Z,1.70
2022-12-04T02:37:43.771Z,1.70
2022-12-04T02:42:52.070Z,1.70
2022-12-04T02:47:58.953Z,1.70
2022-12-04T02:53:19.016Z,1.80
2022-12-04T02:58:41.962Z,1.80
2022-12-04T03:04:06.247Z,1.80
2022-12-04T03:09:38.163Z,1.70
2022-12-04T03:14:50.230Z,1.70
2022-12-04T03:20:01.795Z,1.70
2022-12-04T03:25:06.481Z,1.70
2022-12-04T03:30:22.261Z,1.70
2022-12-04T03:35:37.826Z,1.60
2022-12-04T03:41:01.940Z,1.60
2022-12-04T03:46:09.675Z,1.70
2022-12-04T03:51:38.984Z,1.80
2022-12-04T03:56:50.868Z,1.70
2022-12-04T04:01:57.990Z,1.70
2022-12-04T04:07:13.522Z,1.60
2022-12-04T04:12:23.764Z,1.70
2022-12-04T04:17:48.653Z,1.80
2022-12-04T04:23:15.348Z,1.80
2022-12-04T04:28:47.758Z,1.70
2022-12-04T04:33:59.622Z,1.70
2022-12-04T04:39:11.838Z,1.70
2022-12-04T04:44:30.796Z,1.80
2022-12-04T04:49:37.506Z,1.70
2022-12-04T04:54:41.205Z,1.70
2022-12-04T04:59:44.194Z,1.70
2022-12-04T05:04:47.168Z,1.60
2022-12-04T05:09:50.136Z,1.60
2022-12-04T05:14:53.108Z,1.50
2022-12-04T05:19:58.949Z,1.60
2022-12-04T05:25:02.600Z,1.50
2022-12-04T05:30:06.418Z,1.50
2022-12-04T05:35:11.482Z,1.40
2022-12-04T05:40:15.052Z,1.50
2022-12-04T05:45:18.177Z,1.50
2022-12-04T05:50:21.461Z,1.50
2022-12-04T05:55:24.461Z,1.40
2022-12-04T06:00:27.760Z,1.50
2022-12-04T06:05:32.426Z,1.60
2022-12-04T06:10:35.791Z,1.40
2022-12-04T06:15:41.266Z,1.30
2022-12-04T06:20:44.342Z,1.40
2022-12-04T06:25:47.327Z,1.40
2022-12-04T06:30:50.288Z,1.40
2022-12-04T06:36:06.574Z,1.30
2022-12-04T06:41:12.152Z,1.30
2022-12-04T06:46:19.119Z,1.40
2022-12-04T06:51:26.856Z,1.30
2022-12-04T06:56:31.966Z,1.50
2022-12-04T07:01:35.663Z,1.50
2022-12-04T07:06:40.274Z,1.60
2022-12-04T07:11:44.356Z,1.50
2022-12-04T07:16:47.389Z,1.50
2022-12-04T07:21:50.472Z,1.60
2022-12-04T07:26:53.490Z,1.60
2022-12-04T07:31:56.748Z,1.60
2022-12-04T07:36:59.745Z,1.70
2022-12-04T07:42:02.800Z,1.70
2022-12-04T07:47:05.908Z,1.60
2022-12-04T07:52:08.878Z,1.60
2022-12-04T07:57:11.852Z,1.70
2022-12-04T08:02:14.814Z,1.70
2022-12-04T08:07:18.238Z,1.80
2022-12-04T08:12:21.191Z,1.80
2022-12-04T08:17:24.279Z,1.80
2022-12-04T08:22:27.430Z,1.90
2022-12-04T08:27:30.448Z,2.00
2022-12-04T08:32:34.888Z,2.00
2022-12-04T08:37:37.892Z,2.10
2022-12-04T08:42:40.923Z,2.10
2022-12-04T08:47:47.922Z,2.10
2022-12-04T08:52:53.738Z,2.10
2022-12-04T08:57:56.786Z,2.10
2022-12-04T09:02:59.820Z,2.20
2022-12-04T09:08:02.865Z,2.30
2022-12-04T09:13:06.407Z,2.30
2022-12-04T09:18:10.157Z,2.30
2022-12-04T09:23:13.128Z,2.30
2022-12-04T09:28:16.086Z,2.40
2022-12-04T09:33:19.122Z,2.40
2022-12-04T09:38:22.106Z,2.50
2022-12-04T09:43:31.026Z,2.50
2022-12-04T09:48:37.631Z,2.50
2022-12-04T09:53:53.381Z,2.50
2022-12-04T09:59:14.601Z,2.50
2022-12-04T10:04:18.081Z,2.50
2022-12-04T10:09:42.206Z,2.50
2022-12-04T10:15:28.734Z,2.60
2022-12-04T10:20:31.725Z,2.60
2022-12-04T10:25:38.783Z,2.60
2022-12-04T10:30:43.312Z,2.60
2022-12-04T10:35:52.389Z,2.70
2022-12-04T10:41:00.293Z,2.70
2022-12-04T10:46:03.379Z,2.70
2022-12-04T10:51:09.440Z,2.70
2022-12-04T10:56:14.736Z,2.80
2022-12-04T11:01:17.831Z,2.80
2022-12-04T11:06:26.479Z,2.80
2022-12-04T11:11:34.849Z,2.80
2022-12-04T11:16:48.550Z,2.80
2022-12-04T11:21:53.496Z,2.80
2022-12-04T11:26:58.082Z,2.70
2022-12-04T11:32:07.600Z,2.80
2022-12-04T11:37:23.037Z,2.80
2022-12-04T11:42:28.501Z,2.90
2022-12-04T11:47:33.752Z,2.80
2022-12-04T11:53:05.603Z,2.80
2022-12-04T11:58:08.576Z,2.70
2022-12-04T12:03:28.269Z,2.90
2022-12-04T12:08:38.166Z,2.90
2022-12-04T12:13:56.299Z,2.80
2022-12-04T12:19:43.990Z,2.80
2022-12-04T12:25:07.983Z,2.90
2022-12-04T12:30:17.926Z,2.90
2022-12-04T12:35:29.565Z,2.90
2022-12-04T12:40:47.986Z,3.00
2022-12-04T12:45:56.997Z,3.00
2022-12-04T12:51:29.635Z,3.10
2022-12-04T12:56:49.816Z,3.10
2022-12-04T13:02:04.125Z,3.10
2022-12-04T13:07:26.507Z,3.20
2022-12-04T13:13:30.220Z,3.20
2022-12-04T13:18:55.690Z,3.20
2022-12-04T13:24:40.384Z,3.20
2022-12-04T13:30:05.864Z,3.20
2022-12-04T13:35:46.336Z,3.20
2022-12-04T13:41:11.294Z,3.20
2022-12-04T13:46:23.317Z,3.30
2022-12-04T13:51:38.409Z,3.30
2022-12-04T13:56:43.845Z,3.30
2022-12-04T14:01:52.131Z,3.40
2022-12-04T14:07:00.249Z,3.30
2022-12-04T14:12:05.967Z,3.40
2022-12-04T14:17:38.825Z,3.40
2022-12-04T14:22:44.408Z,3.30
2022-12-04T14:27:52.678Z,3.20
2022-12-04T14:33:22.737Z,3.30
2022-12-04T14:38:26.414Z,3.20
2022-12-04T14:43:50.536Z,3.30
2022-12-04T14:49:04.201Z,3.20
2022-12-04T14:54:10.042Z,3.20
2022-12-04T14:59:23.706Z,3.20
2022-12-04T15:04:33.573Z,3.30
2022-12-04T15:09:54.999Z,3.30
2022-12-04T15:15:09.656Z,3.40
2022-12-04T15:20:18.187Z,3.30
2022-12-04T15:25:28.052Z,3.30
2022-12-04T15:30:35.876Z,3.40
2022-12-04T15:35:43.176Z,3.40
2022-12-04T15:41:00.587Z,3.40
2022-12-04T15:46:22.679Z,3.50
2022-12-04T15:51:25.784Z,3.50
2022-12-04T15:56:29.667Z,3.50
2022-12-04T16:01:40.531Z,3.50
2022-12-04T16:06:48.506Z,3.50
2022-12-04T16:12:25.950Z,3.60
2022-12-04T16:17:34.274Z,3.60
2022-12-04T16:22:39.321Z,3.70
2022-12-04T16:27:42.419Z,3.70
2022-12-04T16:32:45.462Z,3.80
2022-12-04T16:37:49.009Z,3.80
2022-12-04T16:42:52.082Z,3.80
2022-12-04T16:47:58.152Z,3.90
2022-12-04T16:53:01.198Z,4.00
2022-12-04T16:58:05.912Z,4.00
2022-12-04T17:03:11.100Z,4.00
2022-12-04T17:08:14.300Z,4.10
2022-12-04T17:13:21.824Z,4.10
2022-12-04T17:18:24.883Z,4.00
2022-12-04T17:23:27.968Z,4.00
2022-12-04T17:28:31.139Z,4.10
2022-12-04T17:33:34.240Z,4.00
2022-12-04T17:38:46.476Z,4.00
2022-12-04T17:43:49.553Z,4.00
2022-12-04T17:48:52.683Z,4.00
2022-12-04T17:53:55.803Z,4.00
2022-12-04T17:58:58.850Z,4.10
2022-12-04T18:04:04.989Z,4.10
2022-12-04T18:09:12.822Z,4.10
2022-12-04T18:14:23.983Z,4.20
2022-12-04T18:19:29.369Z,4.20
2022-12-04T18:24:33.084Z,4.20
2022-12-04T18:29:37.579Z,4.10
2022-12-04T18:34:40.699Z,4.20
2022-12-04T18:39:43.758Z,4.30
2022-12-04T18:44:47.652Z,4.40
2022-12-04T18:49:50.731Z,4.50
2022-12-04T18:54:54.010Z,4.60
2022-12-04T19:00:00.039Z,4.60
2022-12-04T19:05:03.423Z,4.70
2022-12-04T19:10:11.406Z,4.70
2022-12-04T19:15:14.969Z,4.80
2022-12-04T19:20:18.496Z,4.90
2022-12-04T19:25:21.483Z,4.90
2022-12-04T19:30:24.475Z,5.00
2022-12-04T19:35:27.808Z,5.00
2022-12-04T19:40:30.866Z,5.10
2022-12-04T19:45:34.000Z,5.20
2022-12-04T19:50:37.088Z,5.30
2022-12-04T19:55:40.145Z,5.30
2022-12-04T20:00:43.212Z,5.40
2022-12-04T20:05:46.351Z,5.40
2022-12-04T20:10:49.438Z,5.40
2022-12-04T20:15:52.459Z,5.40
2022-12-04T20:20:57.868Z,5.50
2022-12-04T20:26:08.464Z,5.60
2022-12-04T20:31:18.768Z,5.60
2022-12-04T20:36:24.142Z,5.70
2022-12-04T20:41:31.318Z,5.70
2022-12-04T20:46:37.643Z,5.70
2022-12-04T20:51:43.459Z,5.70
2022-12-04T20:56:48.983Z,5.70
2022-12-04T21:01:53.082Z,5.70
2022-12-04T21:06:56.093Z,5.70
2022-12-04T21:11:59.238Z,5.60
2022-12-04T21:17:02.749Z,5.60
2022-12-04T21:22:06.158Z,5.60
2022-12-04T21:27:13.302Z,5.60
2022-12-04T21:32:19.978Z,5.50
2022-12-04T21:37:23.035Z,5.50
2022-12-04T21:42:30.553Z,5.60
2022-12-04T21:47:33.942Z,5.60
2022-12-04T21:52:37.104Z,5.60
2022-12-04T21:57:41.143Z,5.60
2022-12-04T22:02:44.288Z,5.60
2022-12-04T22:07:47.466Z,5.60
2022-12-04T22:12:50.948Z,5.60
2022-12-04T22:17:54.348Z,5.60
2022-12-04T22:22:57.541Z,5.60
2022-12-04T22:28:01.068Z,5.60
2022-12-04T22:33:04.900Z,5.60
2022-12-04T22:38:08.022Z,5.60
2022-12-04T22:43:11.053Z,5.60
2022-12-04T22:48:14.149Z,5.60
2022-12-04T22:53:17.197Z,5.60
2022-12-04T22:58:20.550Z,5.60
2022-12-04T23:03:23.604Z,5.60
2022-12-04T23:08:26.671Z,5.60
2022-12-04T23:13:29.720Z,5.50
2022-12-04T23:18:33.288Z,5.50
2022-12-04T23:23:38.320Z,5.50
2022-12-04T23:28:41.818Z,5.50
2022-12-04T23:33:44.944Z,5.40
2022-12-04T23:38:48.994Z,5.40
2022-12-04T23:43:53.068Z,5.40
2022-12-04T23:48:56.426Z,5.40
2022-12-04T23:53:59.474Z,5.40
2022-12-04T23:59:02.477Z,5.40
